Time;durP1;ratioP1;P1;durP2;ratioP2;P2;SDS_P1;SDS_P2;PMS_P1;PMS_P2;Temp;Humidity;BMP_temperature;BMP_pressure;BME280_temperature;BME280_humidity;BME280_pressure;Samples;Min_cycle;Max_cycle;Signal;HPM_P1;HPM_P2
2023/03/22 00:02:47;;;;;;;2.10;1.10;;;;;;;8.10;67.25;97625.63;6134421;28;20239;-36
2023/03/22 00:05:56;;;;;;;1.43;1.20;;;;;;;8.11;67.60;97627.25;6134321;28;20621;-36
2023/03/22 00:08:58;;;;;;;1.30;1.20;;;;;;;7.79;68.03;97576.31;6136359;28;20288;-36
2023/03/22 00:12:00;;;;;;;1.17;1.00;;;;;;;8.16;67.76;97630.81;6130352;28;20332;-36
2023/03/22 00:15:03;;;;;;;1.13;1.00;;;;;;;8.13;67.53;97614.56;6133206;28;20705;-36
2023/03/22 00:18:05;;;;;;;1.10;1.00;;;;;;;8.01;67.72;97598.59;6134688;28;20222;-36
2023/03/22 00:21:12;;;;;;;1.97;1.37;;;;;;;8.25;67.86;97626.00;6134308;28;20226;-36
2023/03/22 00:24:14;;;;;;;1.10;1.00;;;;;;;8.26;67.78;97625.75;6130282;28;20334;-36
2023/03/22 00:27:16;;;;;;;2.07;1.10;;;;;;;8.30;67.70;97620.81;6134466;28;20358;-36
2023/03/22 00:30:18;;;;;;;1.43;1.00;;;;;;;8.34;67.48;97611.38;6132372;28;20263;-36
2023/03/22 00:33:21;;;;;;;2.07;1.13;;;;;;;8.36;67.41;97619.09;6134680;28;20237;-36
2023/03/22 00:36:23;;;;;;;1.10;0.80;;;;;;;8.37;67.84;97615.44;6134277;28;20712;-36
2023/03/22 00:39:26;;;;;;;1.30;1.07;;;;;;;8.39;67.87;97608.88;6134307;28;20341;-36
2023/03/22 00:42:28;;;;;;;2.17;0.90;;;;;;;8.40;67.84;97610.47;6133053;28;20281;-36
2023/03/22 00:45:30;;;;;;;1.00;0.83;;;;;;;8.27;67.60;97590.25;6132150;28;20237;-36
2023/03/22 00:48:32;;;;;;;1.00;0.90;;;;;;;8.42;67.82;97602.28;6133566;28;20273;-36
2023/03/22 00:51:34;;;;;;;1.87;1.10;;;;;;;8.36;67.94;97588.06;6144943;28;20241;-36
2023/03/22 00:54:36;;;;;;;2.30;0.90;;;;;;;8.43;67.87;97594.09;6134802;28;20314;-36
2023/03/22 00:57:38;;;;;;;0.97;0.93;;;;;;;8.43;67.87;97591.44;6132214;28;20728;-35
2023/03/22 01:00:41;;;;;;;1.80;0.87;;;;;;;8.43;67.81;97591.44;6132572;28;20722;-36
2023/03/22 01:03:43;;;;;;;1.17;1.00;;;;;;;8.45;67.78;97589.34;6132577;28;20615;-36
2023/03/22 01:06:49;;;;;;;1.80;1.03;;;;;;;8.44;67.98;97590.41;6133620;28;20235;-36
2023/03/22 01:09:51;;;;;;;1.20;1.10;;;;;;;8.41;68.26;97587.38;6134069;28;20261;-36
2023/03/22 01:12:55;;;;;;;1.07;0.90;;;;;;;8.42;68.27;97586.34;6134134;28;20728;-36
2023/03/22 01:15:57;;;;;;;1.00;0.87;;;;;;;8.40;68.35;97589.25;6139950;28;20693;-36
2023/03/22 01:19:00;;;;;;;1.13;0.83;;;;;;;8.39;68.13;97586.81;6132397;28;20377;-36
2023/03/22 01:22:04;;;;;;;1.07;0.83;;;;;;;8.35;68.37;97586.44;6132163;28;20336;-36
2023/03/22 01:25:07;;;;;;;1.53;1.00;;;;;;;8.35;68.32;97583.78;6136435;28;20266;-36
2023/03/22 01:28:09;;;;;;;0.80;0.80;;;;;;;8.34;68.58;97589.31;6136380;28;20401;-36
2023/03/22 01:31:11;;;;;;;1.07;0.97;;;;;;;8.28;68.73;97586.56;6131849;28;20248;-36
2023/03/22 01:34:13;;;;;;;0.90;0.90;;;;;;;8.25;68.64;97571.06;6132057;28;20321;-36
2023/03/22 01:37:15;;;;;;;1.70;1.00;;;;;;;8.22;68.65;97571.53;6136387;28;20238;-36
2023/03/22 01:40:19;;;;;;;0.93;0.93;;;;;;;8.18;68.81;97558.97;6139559;28;20246;-36
2023/03/22 01:43:21;;;;;;;1.80;0.90;;;;;;;8.25;68.98;97564.97;6131527;28;20332;-36
2023/03/22 01:46:24;;;;;;;2.50;1.00;;;;;;;8.23;68.64;97567.84;6132654;28;20234;-36
2023/03/22 01:49:33;;;;;;;1.27;1.00;;;;;;;8.23;68.60;97565.19;6133168;28;20233;-36
2023/03/22 01:52:36;;;;;;;1.20;0.97;;;;;;;8.18;68.72;97549.16;6124409;28;20261;-36
2023/03/22 01:55:46;;;;;;;3.23;1.30;;;;;;;8.29;68.67;97558.16;6125734;28;20235;-36
2023/03/22 01:58:55;;;;;;;0.87;0.80;;;;;;;8.11;69.11;97542.34;6126933;28;20246;-36
2023/03/22 02:02:06;;;;;;;1.90;1.20;;;;;;;8.30;68.92;97562.44;6132575;28;20241;-37
2023/03/22 02:05:11;;;;;;;1.90;0.90;;;;;;;8.33;68.87;97561.97;6130898;28;20238;-37
2023/03/22 02:08:13;;;;;;;0.90;0.90;;;;;;;8.39;68.91;97561.09;6126847;28;20234;-37
2023/03/22 02:11:37;;;;;;;3.20;1.10;;;;;;;8.40;68.74;97562.69;6122902;28;20239;-37
2023/03/22 02:14:47;;;;;;;1.30;1.10;;;;;;;8.39;68.82;97561.09;6130783;28;20242;-37
2023/03/22 02:18:32;;;;;;;1.10;0.90;;;;;;;8.32;69.04;97562.19;6127206;28;20337;-35
2023/03/22 02:22:01;;;;;;;0.90;0.90;;;;;;;8.34;69.04;97568.09;6128143;28;20245;-35
2023/03/22 02:25:37;;;;;;;0.87;0.87;;;;;;;8.34;69.09;97565.44;6143568;28;20609;-35
2023/03/22 02:28:54;;;;;;;1.13;1.03;;;;;;;8.36;68.96;97561.53;6131975;28;20710;-35
2023/03/22 02:32:14;;;;;;;1.00;0.90;;;;;;;8.35;68.97;97556.44;6131353;28;20234;-36
2023/03/22 02:35:51;;;;;;;1.67;1.00;;;;;;;8.36;69.19;97555.38;6128080;28;20218;-36
2023/03/22 02:39:21;;;;;;;1.00;0.90;;;;;;;8.39;69.00;97554.97;6120108;28;20241;-36
2023/03/22 02:42:36;;;;;;;0.83;0.80;;;;;;;8.41;69.00;97555.53;6127862;28;20257;-36
2023/03/22 02:45:57;;;;;;;1.50;0.90;;;;;;;8.45;69.10;97548.72;6130658;28;20702;-36
2023/03/22 02:49:10;;;;;;;0.97;0.80;;;;;;;8.37;69.08;97547.22;6145275;28;20370;-36
2023/03/22 02:52:39;;;;;;;1.60;1.00;;;;;;;8.45;69.23;97546.06;6127985;28;20782;-36
2023/03/22 02:55:57;;;;;;;1.50;1.10;;;;;;;8.42;68.86;97550.03;6143483;28;20238;-36
2023/03/22 02:59:05;;;;;;;1.17;1.07;;;;;;;8.48;68.75;97559.72;6133692;28;20238;-36
2023/03/22 03:02:10;;;;;;;0.77;0.77;;;;;;;8.26;68.73;97516.97;6132142;28;20331;-36
2023/03/22 03:05:15;;;;;;;1.80;0.90;;;;;;;8.49;68.93;97545.38;6146098;28;20230;-36
2023/03/22 03:08:19;;;;;;;1.23;0.90;;;;;;;8.49;69.46;97547.25;6132039;28;20719;-36
2023/03/22 03:11:22;;;;;;;1.30;1.00;;;;;;;8.42;69.12;97536.75;6136266;28;20246;-36
2023/03/22 03:14:28;;;;;;;1.90;0.80;;;;;;;8.27;69.18;97528.38;6136740;28;20230;-36
2023/03/22 03:17:55;;;;;;;1.10;1.00;;;;;;;8.43;69.22;97554.28;6138177;28;20243;-36
2023/03/22 03:21:13;;;;;;;1.07;0.90;;;;;;;8.44;69.31;97555.09;6124517;29;20722;-36
2023/03/22 03:24:37;;;;;;;1.30;1.20;;;;;;;8.38;69.38;97556.81;6133822;28;20366;-35
2023/03/22 03:27:48;;;;;;;2.10;1.07;;;;;;;8.41;69.41;97558.19;6135470;28;20401;-35
2023/03/22 03:31:02;;;;;;;1.40;1.30;;;;;;;8.39;69.29;97555.78;6146559;28;20248;-35
2023/03/22 03:34:20;;;;;;;1.73;0.80;;;;;;;8.39;69.25;97558.44;6135520;28;20234;-35
2023/03/22 03:37:41;;;;;;;1.10;0.93;;;;;;;8.39;69.42;97560.28;6135909;28;20239;-35
2023/03/22 03:40:48;;;;;;;2.33;1.37;;;;;;;8.42;69.31;97568.59;6133779;28;20257;-36
2023/03/22 03:43:53;;;;;;;0.87;0.80;;;;;;;8.07;69.55;97498.72;6135607;28;20242;-35
2023/03/22 03:46:56;;;;;;;1.83;0.93;;;;;;;8.41;69.44;97564.31;6135422;28;20269;-36
2023/03/22 03:49:58;;;;;;;1.10;1.00;;;;;;;8.41;69.24;97556.34;6135903;28;20626;-36
2023/03/22 03:53:01;;;;;;;1.77;0.93;;;;;;;8.40;69.35;97551.28;6142265;28;20242;-36
2023/03/22 03:56:03;;;;;;;0.90;0.90;;;;;;;8.37;69.19;97555.19;6141086;28;20226;-36
2023/03/22 03:59:14;;;;;;;1.30;1.00;;;;;;;8.31;69.06;97566.69;6135501;28;20326;-36
2023/03/22 04:02:17;;;;;;;3.40;1.10;;;;;;;8.23;69.56;97559.91;6149216;28;20261;-36
2023/03/22 04:05:19;;;;;;;0.80;0.80;;;;;;;7.85;69.73;97512.56;6134993;28;20249;-36
2023/03/22 04:08:22;;;;;;;1.03;0.90;;;;;;;8.15;69.58;97559.41;6133989;28;20320;-36
2023/03/22 04:11:24;;;;;;;1.20;0.90;;;;;;;8.13;69.83;97551.69;6134871;28;20346;-36
2023/03/22 04:14:31;;;;;;;0.90;0.80;;;;;;;8.14;69.81;97561.28;6132920;28;20857;-36
2023/03/22 04:17:40;;;;;;;1.63;1.10;;;;;;;8.14;69.35;97558.63;6127058;28;20301;-36
2023/03/22 04:20:45;;;;;;;1.33;1.00;;;;;;;8.15;69.77;97562.06;6133308;28;20269;-36
2023/03/22 04:23:47;;;;;;;1.30;1.10;;;;;;;8.14;69.78;97563.13;6136267;28;20328;-36
2023/03/22 04:26:54;;;;;;;1.87;1.17;;;;;;;8.12;69.84;97555.38;6131646;28;20229;-36
2023/03/22 04:30:03;;;;;;;1.30;1.20;;;;;;;8.13;69.79;97569.47;6132717;28;20230;-36
2023/03/22 04:33:38;;;;;;;1.83;0.90;;;;;;;8.06;70.13;97566.09;6133658;28;20261;-36
2023/03/22 04:36:50;;;;;;;1.23;0.80;;;;;;;8.07;69.94;97565.06;6148362;28;20582;-36
2023/03/22 04:40:07;;;;;;;1.80;1.23;;;;;;;8.07;69.87;97565.84;6132584;28;20241;-36
2023/03/22 04:43:17;;;;;;;3.37;1.57;;;;;;;8.07;70.01;97565.06;6133586;28;20574;-36
2023/03/22 04:46:33;;;;;;;1.60;1.50;;;;;;;8.08;69.72;97564.84;6129960;28;20309;-36
2023/03/22 04:49:38;;;;;;;2.83;1.83;;;;;;;7.78;69.34;97503.88;6135050;28;20242;-35
2023/03/22 04:52:40;;;;;;;3.37;2.20;;;;;;;8.12;69.30;97565.97;6129001;29;20233;-36
2023/03/22 04:55:44;;;;;;;2.07;1.90;;;;;;;8.19;69.20;97565.88;6133666;28;20277;-35
2023/03/22 04:58:46;;;;;;;2.00;1.90;;;;;;;8.28;68.77;97559.22;6133860;28;20242;-35
2023/03/22 05:01:50;;;;;;;2.20;1.90;;;;;;;8.34;68.85;97565.44;6133313;28;20652;-35
2023/03/22 05:04:56;;;;;;;1.90;1.70;;;;;;;8.33;69.03;97566.47;6129966;29;20243;-36
2023/03/22 05:08:08;;;;;;;3.47;2.13;;;;;;;8.34;69.08;97558.28;6127772;28;20585;-35
2023/03/22 05:11:13;;;;;;;2.63;2.03;;;;;;;8.16;69.30;97553.06;6133381;28;20236;-35
2023/03/22 05:14:20;;;;;;;2.60;2.40;;;;;;;8.35;68.70;97569.72;6134124;28;20242;-35
2023/03/22 05:17:22;;;;;;;2.90;1.90;;;;;;;8.41;68.57;97568.81;6132952;28;20313;-35
2023/03/22 05:20:31;;;;;;;2.27;2.07;;;;;;;8.42;68.38;97565.94;6132055;28;20598;-35
2023/03/22 05:23:49;;;;;;;4.63;2.40;;;;;;;8.43;68.10;97566.75;6129040;28;20239;-35
2023/03/22 05:26:53;;;;;;;2.10;1.87;;;;;;;8.46;68.06;97577.69;6128598;28;20246;-35
2023/03/22 05:30:00;;;;;;;2.43;2.10;;;;;;;8.51;68.16;97577.81;6130882;28;20230;-36
2023/03/22 05:33:20;;;;;;;3.07;2.07;;;;;;;8.59;67.85;97578.53;6143250;28;20241;-36
2023/03/22 05:36:28;;;;;;;2.70;1.93;;;;;;;8.62;67.92;97570.91;6131889;28;20225;-36
2023/03/22 05:39:50;;;;;;;3.00;2.03;;;;;;;8.69;68.41;97571.59;6129721;28;20894;-36
2023/03/22 05:42:54;;;;;;;2.10;1.90;;;;;;;8.67;68.18;97580.81;6131924;28;20608;-36
2023/03/22 05:45:59;;;;;;;1.70;1.60;;;;;;;8.74;67.84;97584.16;6127546;28;20261;-36
2023/03/22 05:49:11;;;;;;;1.93;1.83;;;;;;;8.75;67.59;97568.00;6131483;28;20249;-36
2023/03/22 05:52:15;;;;;;;1.60;1.50;;;;;;;8.76;67.27;97556.31;6124136;29;20578;-36
2023/03/22 05:55:41;;;;;;;2.23;1.40;;;;;;;9.00;67.37;97575.69;6128458;28;20239;-36
2023/03/22 05:58:43;;;;;;;1.80;1.33;;;;;;;9.24;66.78;97594.25;6132239;28;20249;-36
2023/03/22 06:01:49;;;;;;;3.00;1.57;;;;;;;9.19;66.68;97576.34;6129818;28;20575;-36
2023/03/22 06:04:56;;;;;;;1.33;1.23;;;;;;;9.51;66.48;97603.31;6139006;28;20745;-36
2023/03/22 06:07:59;;;;;;;1.93;1.40;;;;;;;9.63;66.19;97605.13;6127579;28;20237;-37
2023/03/22 06:11:02;;;;;;;1.60;1.50;;;;;;;9.71;65.92;97610.06;6132682;28;20262;-37
2023/03/22 06:14:04;;;;;;;1.80;1.40;;;;;;;9.85;65.48;97611.38;6131411;28;20590;-37
2023/03/22 06:17:24;;;;;;;2.20;1.87;;;;;;;10.04;64.67;97618.09;6133104;28;20289;-37
2023/03/22 06:20:27;;;;;;;2.03;1.60;;;;;;;10.21;64.52;97614.66;6146691;28;20231;-37
2023/03/22 06:23:34;;;;;;;2.20;1.77;;;;;;;10.34;64.09;97606.38;6124790;28;20243;-37
2023/03/22 06:26:36;;;;;;;2.60;1.87;;;;;;;10.42;63.43;97610.50;6115601;28;20265;-37
2023/03/22 06:29:39;;;;;;;1.70;1.60;;;;;;;10.48;64.03;97606.88;6129426;28;20307;-35
2023/03/22 06:32:41;;;;;;;2.97;1.70;;;;;;;10.42;63.41;97592.66;6138636;28;20262;-35
2023/03/22 06:35:44;;;;;;;2.13;1.80;;;;;;;10.55;63.61;97612.84;6126955;29;20236;-35
2023/03/22 06:38:54;;;;;;;2.67;2.23;;;;;;;10.61;63.30;97619.88;6130012;28;20585;-36
2023/03/22 06:41:56;;;;;;;2.33;1.80;;;;;;;10.69;63.11;97618.63;6131137;28;20252;-36
2023/03/22 06:44:59;;;;;;;3.03;1.83;;;;;;;10.75;63.24;97621.16;6123155;28;20239;-36
2023/03/22 06:48:06;;;;;;;2.30;1.70;;;;;;;10.83;63.43;97614.59;6129416;28;20700;-36
2023/03/22 06:51:20;;;;;;;2.37;1.50;;;;;;;10.94;63.09;97624.34;6127697;28;20219;-36
2023/03/22 06:54:24;;;;;;;3.30;2.10;;;;;;;10.72;62.69;97572.88;6138957;28;20236;-36
2023/03/22 06:57:27;;;;;;;2.67;2.13;;;;;;;11.00;62.53;97590.59;6129896;28;20241;-36
2023/03/22 07:00:30;;;;;;;2.10;1.77;;;;;;;11.31;63.04;97621.91;6131002;28;20613;-36
2023/03/22 07:03:32;;;;;;;2.03;1.83;;;;;;;11.43;62.51;97616.47;6123160;28;20759;-36
2023/03/22 07:06:39;;;;;;;2.13;1.80;;;;;;;11.55;62.05;97622.47;6129980;28;20238;-36
2023/03/22 07:09:42;;;;;;;3.67;2.47;;;;;;;11.71;61.82;97623.44;6131794;28;20241;-36
2023/03/22 07:12:44;;;;;;;2.60;2.40;;;;;;;11.65;61.35;97572.94;6131090;28;20252;-36
2023/03/22 07:15:49;;;;;;;3.50;2.27;;;;;;;12.22;61.25;97620.53;6129781;28;20602;-36
2023/03/22 07:19:04;;;;;;;3.97;2.10;;;;;;;12.65;60.52;97620.31;6133035;28;20243;-36
2023/03/22 07:22:06;;;;;;;1.80;1.70;;;;;;;13.22;59.28;97616.16;6145458;28;20250;-37
2023/03/22 07:25:09;;;;;;;2.00;1.90;;;;;;;13.85;56.75;97614.25;6112818;28;20707;-36
2023/03/22 07:28:12;;;;;;;4.73;2.60;;;;;;;14.33;53.70;97617.53;6129407;28;20373;-37
2023/03/22 07:31:15;;;;;;;3.63;2.80;;;;;;;14.76;51.92;97617.28;6141138;28;20241;-37
2023/03/22 07:34:24;;;;;;;4.27;2.80;;;;;;;15.12;48.68;97616.16;6126692;28;20235;-36
2023/03/22 07:37:50;;;;;;;4.27;2.70;;;;;;;15.29;47.79;97599.72;6129833;28;20242;-37
2023/03/22 07:40:58;;;;;;;3.87;3.07;;;;;;;15.90;46.87;97625.53;6128966;28;20239;-37
2023/03/22 07:44:13;;;;;;;2.70;2.50;;;;;;;16.52;44.61;97605.22;6126521;28;20317;-37
2023/03/22 07:47:35;;;;;;;3.30;2.77;;;;;;;16.96;43.48;97586.28;6138693;28;20238;-37
2023/03/22 07:50:55;;;;;;;3.77;2.60;;;;;;;17.88;40.05;97614.00;6131934;28;20782;-37
2023/03/22 07:54:01;;;;;;;5.53;2.93;;;;;;;17.48;40.98;97616.91;6132148;28;20245;-37
2023/03/22 07:57:04;;;;;;;4.37;2.93;;;;;;;17.31;40.90;97595.03;6125627;28;20703;-37
2023/03/22 08:00:10;;;;;;;5.53;3.30;;;;;;;17.06;41.83;97593.44;6130783;28;20234;-37
2023/03/22 08:03:32;;;;;;;2.47;2.17;;;;;;;17.76;40.96;97596.38;6134064;28;20245;-37
2023/03/22 08:06:41;;;;;;;3.73;2.27;;;;;;;18.62;38.86;97616.94;6132901;28;20627;-37
2023/03/22 08:09:45;;;;;;;2.50;1.90;;;;;;;19.96;36.43;97612.25;6141387;28;20305;-37
2023/03/22 08:12:47;;;;;;;3.30;2.17;;;;;;;23.52;29.08;97616.63;6134787;28;20370;-37
2023/03/22 08:15:55;;;;;;;3.20;2.50;;;;;;;24.82;27.80;97612.16;6135189;28;20238;-37
2023/03/22 08:18:58;;;;;;;2.50;2.30;;;;;;;27.92;23.06;97631.34;6131717;28;20262;-37
2023/03/22 08:22:02;;;;;;;2.47;2.25;;;;;;;30.15;20.45;97624.09;6133475;28;20325;-37
2023/03/22 08:25:28;;;;;;;2.67;2.10;;;;;;;31.89;19.22;97629.88;6132985;28;20246;-37
2023/03/22 08:28:39;;;;;;;3.35;2.28;;;;;;;32.95;18.00;97634.31;6131746;28;20246;-37
2023/03/22 08:31:41;;;;;;;2.72;2.00;;;;;;;33.94;16.70;97611.50;6147883;28;20242;-37
2023/03/22 08:34:44;;;;;;;2.78;2.05;;;;;;;34.73;16.05;97620.34;6133486;28;20242;-38
2023/03/22 08:37:46;;;;;;;3.15;2.20;;;;;;;33.73;16.78;97630.84;6134423;28;20246;-38
2023/03/22 08:40:49;;;;;;;1.98;1.80;;;;;;;34.03;16.18;97628.44;6134545;28;20235;-38
2023/03/22 08:43:56;;;;;;;2.60;2.40;;;;;;;32.08;18.13;97635.91;6121988;28;20333;-38
2023/03/22 08:46:58;;;;;;;2.55;2.00;;;;;;;29.02;20.83;97633.66;6136914;28;20329;-37
2023/03/22 08:50:04;;;;;;;2.20;2.00;;;;;;;26.67;23.00;97577.03;6132472;28;20239;-37
2023/03/22 08:53:21;;;;;;;3.10;2.75;;;;;;;25.53;24.68;97613.78;6128666;28;20330;-38
2023/03/22 08:56:36;;;;;;;3.15;2.78;;;;;;;23.92;26.93;97597.22;6130756;28;20723;-37
2023/03/22 08:59:56;;;;;;;2.95;2.50;;;;;;;22.84;28.42;97611.09;6130691;28;20239;-37
2023/03/22 09:03:18;;;;;;;2.03;1.83;;;;;;;22.35;29.40;97610.53;6132338;28;20294;-37
2023/03/22 09:06:20;;;;;;;3.30;2.20;;;;;;;21.57;31.21;97609.59;6131553;28;20685;-37
2023/03/22 09:09:22;;;;;;;2.63;2.40;;;;;;;20.79;32.42;97615.47;6134844;28;20350;-37
2023/03/22 09:12:28;;;;;;;2.43;2.10;;;;;;;21.05;31.91;97610.19;6144953;28;20710;-37
2023/03/22 09:15:31;;;;;;;2.93;2.10;;;;;;;21.31;31.19;97604.09;6131459;28;20254;-37
2023/03/22 09:18:44;;;;;;;3.43;1.97;;;;;;;21.29;32.14;97592.75;6130233;28;20245;-37
2023/03/22 09:21:50;;;;;;;4.23;2.80;;;;;;;21.17;31.46;97582.50;6131852;28;20238;-37
2023/03/22 09:25:05;;;;;;;2.90;2.57;;;;;;;20.85;31.96;97589.06;6130724;28;20329;-37
2023/03/22 09:28:08;;;;;;;2.30;2.00;;;;;;;20.19;33.24;97575.22;6139979;28;20238;-37
2023/03/22 09:31:10;;;;;;;3.87;2.30;;;;;;;20.00;33.24;97588.91;6130822;28;20249;-37
2023/03/22 09:34:15;;;;;;;3.13;2.70;;;;;;;19.60;34.43;97568.97;6131566;28;20656;-37
2023/03/22 09:37:18;;;;;;;2.60;2.40;;;;;;;19.36;35.12;97574.59;6129657;28;20642;-37
2023/03/22 09:40:29;;;;;;;3.57;2.47;;;;;;;19.31;35.19;97585.50;6134793;28;20230;-37
2023/03/22 09:43:45;;;;;;;3.57;2.63;;;;;;;19.19;35.32;97583.28;6130053;28;20231;-37
2023/03/22 09:46:52;;;;;;;2.03;1.90;;;;;;;18.92;34.91;97586.78;6129196;28;20321;-37
2023/03/22 09:50:07;;;;;;;2.03;1.73;;;;;;;18.46;35.05;97559.75;6132690;28;20321;-37
2023/03/22 09:53:13;;;;;;;3.17;2.10;;;;;;;18.83;34.79;97596.66;6132396;28;20242;-37
2023/03/22 09:56:28;;;;;;;3.90;2.20;;;;;;;18.85;34.99;97551.25;6132160;28;21047;-37
2023/03/22 09:59:47;;;;;;;2.70;1.93;;;;;;;19.52;34.35;97583.97;6132682;28;20235;-37
2023/03/22 10:03:00;;;;;;;3.10;2.13;;;;;;;19.57;34.17;97578.47;6131201;28;20351;-37
2023/03/22 10:06:14;;;;;;;1.73;1.63;;;;;;;19.62;33.62;97580.28;6131901;28;20703;-37
2023/03/22 10:09:49;;;;;;;3.30;1.97;;;;;;;20.12;32.57;97564.03;6131463;28;20231;-37
2023/03/22 10:13:33;;;;;;;3.17;1.70;;;;;;;20.03;32.71;97555.84;6131755;28;20247;-38
2023/03/22 10:16:38;;;;;;;3.03;2.17;;;;;;;19.07;33.85;97534.38;6126909;28;20251;-37
2023/03/22 10:19:55;;;;;;;2.60;2.10;;;;;;;19.30;33.69;97554.16;6131926;28;20313;-37
2023/03/22 10:23:00;;;;;;;2.03;1.83;;;;;;;18.97;33.94;97545.38;6129008;28;20270;-37
2023/03/22 10:26:03;;;;;;;2.30;2.10;;;;;;;18.72;34.22;97566.34;6131584;28;20719;-37
2023/03/22 10:29:12;;;;;;;3.43;1.87;;;;;;;19.41;33.33;97562.84;6130898;28;20265;-37
2023/03/22 10:32:17;;;;;;;1.90;1.70;;;;;;;20.02;32.19;97553.44;6128796;28;20234;-37
2023/03/22 10:35:19;;;;;;;1.60;1.50;;;;;;;20.65;31.12;97546.28;6131771;28;20232;-37
2023/03/22 10:38:25;;;;;;;2.50;2.30;;;;;;;20.69;31.56;97542.63;6131894;28;20269;-37
2023/03/22 10:41:28;;;;;;;2.73;2.10;;;;;;;21.06;30.84;97533.22;6131256;28;20262;-37
2023/03/22 10:44:37;;;;;;;3.30;2.00;;;;;;;20.37;31.39;97538.28;6132075;28;20309;-37
2023/03/22 10:47:45;;;;;;;2.07;1.90;;;;;;;20.24;31.92;97537.22;6128693;28;20226;-37
2023/03/22 10:50:47;;;;;;;2.80;1.87;;;;;;;20.47;31.81;97526.41;6131832;28;20238;-37
2023/03/22 10:53:52;;;;;;;2.30;1.77;;;;;;;21.07;30.88;97528.59;6131450;28;20244;-37
2023/03/22 10:56:55;;;;;;;2.87;1.83;;;;;;;21.37;29.96;97533.19;6127499;28;20630;-37
2023/03/22 10:59:57;;;;;;;1.47;1.30;;;;;;;21.73;29.91;97534.84;6131727;28;20723;-37
2023/03/22 11:03:00;;;;;;;3.30;2.23;;;;;;;20.84;30.10;97498.91;6131023;28;20250;-37
2023/03/22 11:06:09;;;;;;;1.87;1.60;;;;;;;20.64;30.55;97531.94;6131921;28;20240;-37
2023/03/22 11:09:17;;;;;;;1.60;1.50;;;;;;;21.04;30.12;97519.22;6129484;28;20679;-37
2023/03/22 11:12:19;;;;;;;2.17;1.77;;;;;;;21.37;29.96;97521.53;6130455;28;20317;-38
2023/03/22 11:15:29;;;;;;;2.20;2.00;;;;;;;21.78;28.86;97523.06;6132171;28;20720;-37
2023/03/22 11:18:33;;;;;;;2.87;1.57;;;;;;;21.79;28.25;97503.75;6131984;28;20262;-37
2023/03/22 11:21:35;;;;;;;2.83;2.10;;;;;;;21.71;29.84;97509.16;6130879;28;20826;-37
2023/03/22 11:24:38;;;;;;;2.30;2.10;;;;;;;21.39;28.73;97519.34;6131118;28;20308;-37
2023/03/22 11:28:09;;;;;;;2.20;1.60;;;;;;;21.65;28.38;97511.22;6131533;28;20781;-37
2023/03/22 11:31:13;;;;;;;1.83;1.23;;;;;;;21.89;28.24;97499.91;6132491;28;20246;-38
2023/03/22 11:34:18;;;;;;;2.47;1.43;;;;;;;22.08;28.52;97500.38;6135198;28;20738;-37
2023/03/22 11:37:21;;;;;;;2.40;2.20;;;;;;;21.81;28.46;97503.41;6137515;28;20320;-38
2023/03/22 11:40:26;;;;;;;3.40;1.93;;;;;;;21.64;28.07;97493.38;6138446;28;20242;-37
2023/03/22 11:43:41;;;;;;;3.90;1.60;;;;;;;21.52;28.59;97487.78;6136367;28;20234;-37
2023/03/22 11:46:59;;;;;;;1.60;1.50;;;;;;;21.26;28.43;97433.53;6132499;28;20318;-37
2023/03/22 11:50:05;;;;;;;1.47;1.20;;;;;;;21.48;28.30;97489.53;6134729;28;20260;-37
2023/03/22 11:53:15;;;;;;;3.10;1.87;;;;;;;21.30;29.33;97492.22;6133623;28;20242;-37
2023/03/22 11:56:25;;;;;;;2.13;1.93;;;;;;;21.48;28.32;97481.41;6136430;28;20745;-37
2023/03/22 11:59:34;;;;;;;2.83;2.00;;;;;;;21.30;29.79;97481.38;6131754;28;20266;-37
2023/03/22 12:02:50;;;;;;;3.07;1.80;;;;;;;21.42;28.28;97472.59;6134841;28;20231;-38
2023/03/22 12:05:53;;;;;;;2.33;1.60;;;;;;;21.64;28.18;97474.41;6132992;28;20628;-37
2023/03/22 12:09:10;;;;;;;2.27;1.67;;;;;;;21.58;28.18;97471.06;6133636;28;20757;-37
2023/03/22 12:12:20;;;;;;;2.80;1.73;;;;;;;21.31;28.22;97453.16;6132834;28;20612;-37
2023/03/22 12:15:27;;;;;;;1.80;1.60;;;;;;;21.44;28.60;97461.47;6134591;28;21011;-36
2023/03/22 12:18:40;;;;;;;1.53;1.43;;;;;;;21.05;27.95;97438.75;6134964;28;20540;-36
2023/03/22 12:21:44;;;;;;;1.93;1.33;;;;;;;20.84;28.76;97460.19;6137859;28;20231;-36
2023/03/22 12:24:46;;;;;;;3.47;2.00;;;;;;;20.43;29.24;97457.75;6129022;28;20741;-36
2023/03/22 12:28:02;;;;;;;1.13;1.10;;;;;;;20.10;28.27;97429.13;6134945;28;20242;-36
2023/03/22 12:31:06;;;;;;;1.53;1.43;;;;;;;20.43;27.83;97447.72;6128139;28;20230;-36
2023/03/22 12:34:16;;;;;;;2.63;1.93;;;;;;;20.19;30.01;97421.03;6134266;28;20259;-36
2023/03/22 12:37:24;;;;;;;2.97;1.90;;;;;;;20.10;32.08;97450.75;6134770;28;20572;-36
2023/03/22 12:40:38;;;;;;;3.00;1.90;;;;;;;19.92;32.52;97442.84;6130105;28;20762;-39
2023/03/22 12:44:18;;;;;;;2.03;1.60;;;;;;;19.85;33.42;97440.53;6134953;28;20766;-37
2023/03/22 12:47:27;;;;;;;3.90;2.10;;;;;;;19.74;33.29;97441.91;6060270;29;20767;-37
2023/03/22 12:50:42;;;;;;;2.07;1.83;;;;;;;19.59;33.70;97433.06;6060979;29;20343;-37
2023/03/22 12:53:53;;;;;;;3.27;1.97;;;;;;;19.44;33.75;97430.69;6060170;29;20329;-37
2023/03/22 12:56:56;;;;;;;2.20;1.83;;;;;;;19.38;33.58;97426.50;6060098;29;20240;-37
2023/03/22 13:00:08;;;;;;;2.47;1.50;;;;;;;19.34;32.93;97410.09;6060578;29;20377;-37
2023/03/22 13:03:16;;;;;;;2.77;1.90;;;;;;;19.58;33.40;97425.22;6059135;29;20239;-37
2023/03/22 13:06:30;;;;;;;3.97;1.83;;;;;;;19.78;33.32;97419.38;6060074;29;20240;-37
2023/03/22 13:09:39;;;;;;;2.87;2.23;;;;;;;19.77;33.56;97419.69;6060325;29;20647;-37
2023/03/22 13:13:07;;;;;;;2.90;2.30;;;;;;;19.86;33.99;97417.03;6060296;29;20339;-37
2023/03/22 13:16:12;;;;;;;5.70;2.27;;;;;;;19.96;33.66;97411.38;6061370;29;20784;-36
2023/03/22 13:19:31;;;;;;;2.03;1.40;;;;;;;20.18;33.71;97397.81;6060619;29;20289;-36
2023/03/22 13:22:36;;;;;;;2.30;2.10;;;;;;;20.44;32.27;97397.13;6129727;28;20290;-36
2023/03/22 13:25:58;;;;;;;2.07;1.87;;;;;;;20.35;32.17;97375.47;6131969;28;20238;-36
2023/03/22 13:29:09;;;;;;;4.07;2.63;;;;;;;20.33;32.06;97386.56;6132669;28;20714;-36
2023/03/22 13:32:32;;;;;;;3.40;2.03;;;;;;;20.01;33.60;97386.91;6132126;28;20263;-36
2023/03/22 13:35:57;;;;;;;1.97;1.83;;;;;;;19.72;33.43;97390.06;6130398;28;20237;-36
2023/03/22 13:39:07;;;;;;;3.40;1.40;;;;;;;19.82;33.83;97387.13;6132895;28;20691;-36
2023/03/22 13:42:19;;;;;;;2.00;1.70;;;;;;;19.39;33.88;97327.34;6133406;28;20321;-36
2023/03/22 13:45:32;;;;;;;2.87;1.60;;;;;;;19.68;33.81;97373.66;6129921;28;20366;-37
2023/03/22 13:48:46;;;;;;;1.57;1.37;;;;;;;19.57;33.71;97378.50;6132363;28;20267;-37
2023/03/22 13:51:50;;;;;;;1.87;1.20;;;;;;;19.34;34.27;97372.28;6130220;28;20243;-37
2023/03/22 13:54:56;;;;;;;2.50;1.40;;;;;;;19.42;34.19;97372.66;6132325;28;20234;-36
2023/03/22 13:57:58;;;;;;;2.73;1.60;;;;;;;19.16;33.97;97330.06;6128423;28;20326;-37
2023/03/22 14:02:09;;;;;;;1.60;1.50;;;;;;;19.30;33.92;97374.00;6132102;28;20710;-37
2023/03/22 14:05:19;;;;;;;2.03;1.10;;;;;;;19.40;34.13;97359.44;6033548;28;20298;-37
2023/03/22 14:08:28;;;;;;;1.40;1.13;;;;;;;19.51;34.00;97357.31;6129341;28;20241;-37
2023/03/22 14:11:47;;;;;;;1.43;1.00;;;;;;;19.67;33.45;97345.06;6133536;28;20321;-37
2023/03/22 14:14:55;;;;;;;1.50;1.40;;;;;;;19.55;33.01;97358.28;6130571;28;20255;-37
2023/03/22 14:18:19;;;;;;;1.93;1.27;;;;;;;19.43;33.87;97344.53;6138613;28;20238;-36
2023/03/22 14:21:31;;;;;;;1.20;1.10;;;;;;;19.58;33.51;97346.88;6131707;28;20237;-37
2023/03/22 14:24:36;;;;;;;1.97;1.27;;;;;;;19.53;33.12;97345.09;6129167;28;20346;-37
2023/03/22 14:27:36;;;;;;;1.63;1.20;;;;;;;19.45;33.48;97318.78;6132483;28;20329;-37
2023/03/22 14:30:39;;;;;;;5.47;1.50;;;;;;;19.39;32.77;97330.03;6127729;28;20251;-36
2023/03/22 14:33:43;;;;;;;0.83;0.80;;;;;;;19.39;33.15;97340.84;6129003;28;20238;-37
2023/03/22 14:36:48;;;;;;;2.10;1.13;;;;;;;19.33;33.42;97337.47;6131502;28;20313;-37
2023/03/22 14:39:50;;;;;;;1.40;1.20;;;;;;;19.28;33.69;97327.59;6131512;28;20231;-37
2023/03/22 14:42:51;;;;;;;3.40;1.07;;;;;;;19.33;33.54;97326.66;6132052;28;20281;-37
2023/03/22 14:46:02;;;;;;;1.43;0.87;;;;;;;19.32;33.35;97331.28;6131055;28;20229;-36
2023/03/22 14:49:04;;;;;;;3.10;1.27;;;;;;;19.29;32.75;97326.47;6131937;28;20253;-37
2023/03/22 14:52:05;;;;;;;0.83;0.73;;;;;;;19.19;33.15;97317.81;6132433;28;20325;-37
2023/03/22 14:55:14;;;;;;;1.53;1.00;;;;;;;19.08;32.94;97328.88;6131475;28;20313;-37